sensor_id;sensor_type;location;lat;lon;timestamp;P1;durP1;ratioP1;P2;durP2;ratioP2
4794;SDS011;2411;47.060;15.064;2023-06-22T00:00:15;6.40;;;3.77;;
4794;SDS011;2411;47.060;15.064;2023-06-22T00:02:42;15.13;;;4.30;;
4794;SDS011;2411;47.060;15.064;2023-06-22T00:05:10;6.83;;;4.00;;
4794;SDS011;2411;47.060;15.064;2023-06-22T00:07:37;14.60;;;4.90;;
4794;SDS011;2411;47.060;15.064;2023-06-22T00:10:04;10.07;;;5.33;;
4794;SDS011;2411;47.060;15.064;2023-06-22T00:12:32;23.70;;;5.50;;
4794;SDS011;2411;47.060;15.064;2023-06-22T00:14:59;9.03;;;4.80;;
4794;SDS011;2411;47.060;15.064;2023-06-22T00:17:26;14.17;;;5.30;;
4794;SDS011;2411;47.060;15.064;2023-06-22T00:19:54;11.10;;;4.17;;
4794;SDS011;2411;47.060;15.064;2023-06-22T00:22:21;16.03;;;4.60;;
4794;SDS011;2411;47.060;15.064;2023-06-22T00:24:56;14.97;;;5.43;;
4794;SDS011;2411;47.060;15.064;2023-06-22T00:27:23;11.93;;;5.40;;
4794;SDS011;2411;47.060;15.064;2023-06-22T00:29:50;12.03;;;4.87;;
4794;SDS011;2411;47.060;15.064;2023-06-22T00:32:18;14.33;;;5.50;;
4794;SDS011;2411;47.060;15.064;2023-06-22T00:34:45;18.17;;;5.17;;
4794;SDS011;2411;47.060;15.064;2023-06-22T00:37:13;11.13;;;5.27;;
4794;SDS011;2411;47.060;15.064;2023-06-22T00:39:40;15.07;;;4.83;;
4794;SDS011;2411;47.060;15.064;2023-06-22T00:42:07;13.20;;;5.50;;
4794;SDS011;2411;47.060;15.064;2023-06-22T00:44:35;13.93;;;5.63;;
4794;SDS011;2411;47.060;15.064;2023-06-22T00:47:03;20.77;;;4.60;;
4794;SDS011;2411;47.060;15.064;2023-06-22T00:49:31;17.40;;;5.17;;
4794;SDS011;2411;47.060;15.064;2023-06-22T00:51:58;14.57;;;6.40;;
4794;SDS011;2411;47.060;15.064;2023-06-22T00:54:25;13.20;;;5.20;;
4794;SDS011;2411;47.060;15.064;2023-06-22T00:56:55;24.53;;;5.73;;
4794;SDS011;2411;47.060;15.064;2023-06-22T00:59:24;16.87;;;6.37;;
4794;SDS011;2411;47.060;15.064;2023-06-22T01:01:54;11.83;;;4.50;;
4794;SDS011;2411;47.060;15.064;2023-06-22T01:04:23;15.27;;;5.40;;
4794;SDS011;2411;47.060;15.064;2023-06-22T01:10:01;11.27;;;5.77;;
4794;SDS011;2411;47.060;15.064;2023-06-22T01:13:03;19.87;;;5.33;;
4794;SDS011;2411;47.060;15.064;2023-06-22T01:15:39;9.43;;;4.80;;
4794;SDS011;2411;47.060;15.064;2023-06-22T01:18:12;14.03;;;4.60;;
4794;SDS011;2411;47.060;15.064;2023-06-22T01:20:41;9.00;;;5.17;;
4794;SDS011;2411;47.060;15.064;2023-06-22T01:23:11;20.10;;;6.17;;
4794;SDS011;2411;47.060;15.064;2023-06-22T01:29:11;19.20;;;6.07;;
4794;SDS011;2411;47.060;15.064;2023-06-22T01:31:40;10.70;;;5.20;;
4794;SDS011;2411;47.060;15.064;2023-06-22T01:34:09;12.37;;;4.73;;
4794;SDS011;2411;47.060;15.064;2023-06-22T01:36:38;15.07;;;5.30;;
4794;SDS011;2411;47.060;15.064;2023-06-22T01:39:06;21.63;;;6.30;;
4794;SDS011;2411;47.060;15.064;2023-06-22T01:41:36;9.97;;;4.97;;
4794;SDS011;2411;47.060;15.064;2023-06-22T01:44:07;19.83;;;5.07;;
4794;SDS011;2411;47.060;15.064;2023-06-22T01:46:36;18.93;;;6.30;;
4794;SDS011;2411;47.060;15.064;2023-06-22T01:49:04;15.97;;;5.00;;
4794;SDS011;2411;47.060;15.064;2023-06-22T01:51:32;14.80;;;5.33;;
4794;SDS011;2411;47.060;15.064;2023-06-22T01:54:00;13.80;;;5.60;;
4794;SDS011;2411;47.060;15.064;2023-06-22T01:56:28;8.30;;;5.07;;
4794;SDS011;2411;47.060;15.064;2023-06-22T02:01:31;9.50;;;5.07;;
4794;SDS011;2411;47.060;15.064;2023-06-22T02:04:26;20.50;;;5.23;;
4794;SDS011;2411;47.060;15.064;2023-06-22T02:06:59;16.37;;;4.57;;
4794;SDS011;2411;47.060;15.064;2023-06-22T02:09:31;11.53;;;6.13;;
4794;SDS011;2411;47.060;15.064;2023-06-22T02:12:00;21.17;;;5.40;;
4794;SDS011;2411;47.060;15.064;2023-06-22T02:14:30;11.70;;;5.00;;
4794;SDS011;2411;47.060;15.064;2023-06-22T02:16:58;11.10;;;5.77;;
4794;SDS011;2411;47.060;15.064;2023-06-22T02:19:26;19.37;;;5.63;;
4794;SDS011;2411;47.060;15.064;2023-06-22T02:21:54;11.63;;;5.10;;
4794;SDS011;2411;47.060;15.064;2023-06-22T02:24:21;8.60;;;5.00;;
4794;SDS011;2411;47.060;15.064;2023-06-22T02:26:50;12.47;;;5.53;;
4794;SDS011;2411;47.060;15.064;2023-06-22T02:29:17;14.13;;;5.30;;
4794;SDS011;2411;47.060;15.064;2023-06-22T02:31:45;14.90;;;6.17;;
4794;SDS011;2411;47.060;15.064;2023-06-22T02:34:12;24.40;;;6.30;;
4794;SDS011;2411;47.060;15.064;2023-06-22T02:36:48;12.17;;;5.90;;
4794;SDS011;2411;47.060;15.064;2023-06-22T02:39:22;12.20;;;5.20;;
4794;SDS011;2411;47.060;15.064;2023-06-22T02:41:50;15.73;;;5.40;;
4794;SDS011;2411;47.060;15.064;2023-06-22T02:44:19;11.13;;;5.77;;
4794;SDS011;2411;47.060;15.064;2023-06-22T02:46:47;11.83;;;6.83;;
4794;SDS011;2411;47.060;15.064;2023-06-22T02:49:15;18.87;;;6.73;;
4794;SDS011;2411;47.060;15.064;2023-06-22T02:51:44;17.60;;;6.00;;
4794;SDS011;2411;47.060;15.064;2023-06-22T02:54:13;10.47;;;6.23;;
4794;SDS011;2411;47.060;15.064;2023-06-22T02:56:40;18.03;;;6.53;;
4794;SDS011;2411;47.060;15.064;2023-06-22T02:59:10;15.17;;;6.47;;
4794;SDS011;2411;47.060;15.064;2023-06-22T03:01:37;10.77;;;6.60;;
4794;SDS011;2411;47.060;15.064;2023-06-22T03:04:07;10.73;;;5.43;;
4794;SDS011;2411;47.060;15.064;2023-06-22T03:06:38;19.53;;;6.33;;
4794;SDS011;2411;47.060;15.064;2023-06-22T03:09:07;11.73;;;5.57;;
4794;SDS011;2411;47.060;15.064;2023-06-22T03:11:34;16.63;;;7.13;;
4794;SDS011;2411;47.060;15.064;2023-06-22T03:14:02;7.97;;;5.30;;
4794;SDS011;2411;47.060;15.064;2023-06-22T03:16:29;15.17;;;5.80;;
4794;SDS011;2411;47.060;15.064;2023-06-22T03:18:57;15.40;;;6.70;;
4794;SDS011;2411;47.060;15.064;2023-06-22T03:21:27;13.90;;;5.50;;
4794;SDS011;2411;47.060;15.064;2023-06-22T03:23:55;12.47;;;6.23;;
4794;SDS011;2411;47.060;15.064;2023-06-22T03:26:22;15.73;;;6.73;;
4794;SDS011;2411;47.060;15.064;2023-06-22T03:28:53;12.93;;;6.53;;
4794;SDS011;2411;47.060;15.064;2023-06-22T03:31:21;10.80;;;5.33;;
4794;SDS011;2411;47.060;15.064;2023-06-22T03:33:49;15.63;;;6.10;;
4794;SDS011;2411;47.060;15.064;2023-06-22T03:36:17;14.00;;;5.83;;
4794;SDS011;2411;47.060;15.064;2023-06-22T03:38:49;18.80;;;6.20;;
4794;SDS011;2411;47.060;15.064;2023-06-22T03:41:17;11.67;;;5.63;;
4794;SDS011;2411;47.060;15.064;2023-06-22T03:43:46;9.77;;;5.07;;
4794;SDS011;2411;47.060;15.064;2023-06-22T03:46:13;11.63;;;6.50;;
4794;SDS011;2411;47.060;15.064;2023-06-22T03:48:40;13.03;;;6.80;;
4794;SDS011;2411;47.060;15.064;2023-06-22T03:51:08;13.80;;;6.30;;
4794;SDS011;2411;47.060;15.064;2023-06-22T03:53:35;12.77;;;5.80;;
4794;SDS011;2411;47.060;15.064;2023-06-22T03:56:02;15.10;;;6.53;;
4794;SDS011;2411;47.060;15.064;2023-06-22T03:58:30;16.67;;;6.20;;
4794;SDS011;2411;47.060;15.064;2023-06-22T04:00:59;17.13;;;6.00;;
4794;SDS011;2411;47.060;15.064;2023-06-22T04:03:27;10.60;;;5.93;;
4794;SDS011;2411;47.060;15.064;2023-06-22T04:05:54;18.73;;;6.63;;
4794;SDS011;2411;47.060;15.064;2023-06-22T04:08:21;20.10;;;6.50;;
4794;SDS011;2411;47.060;15.064;2023-06-22T04:10:49;11.13;;;6.17;;
4794;SDS011;2411;47.060;15.064;2023-06-22T04:13:16;16.10;;;6.77;;
4794;SDS011;2411;47.060;15.064;2023-06-22T04:15:43;11.27;;;5.77;;
4794;SDS011;2411;47.060;15.064;2023-06-22T04:18:11;15.63;;;5.83;;
4794;SDS011;2411;47.060;15.064;2023-06-22T04:20:38;14.10;;;6.90;;
4794;SDS011;2411;47.060;15.064;2023-06-22T04:23:09;13.97;;;6.50;;
4794;SDS011;2411;47.060;15.064;2023-06-22T04:25:36;21.20;;;7.30;;
4794;SDS011;2411;47.060;15.064;2023-06-22T04:28:03;18.63;;;6.40;;
4794;SDS011;2411;47.060;15.064;2023-06-22T04:30:32;14.17;;;6.23;;
4794;SDS011;2411;47.060;15.064;2023-06-22T04:33:00;15.37;;;5.73;;
4794;SDS011;2411;47.060;15.064;2023-06-22T04:35:27;9.20;;;5.17;;
4794;SDS011;2411;47.060;15.064;2023-06-22T04:37:57;13.23;;;5.80;;
4794;SDS011;2411;47.060;15.064;2023-06-22T04:40:25;20.40;;;6.70;;
4794;SDS011;2411;47.060;15.064;2023-06-22T04:42:53;12.50;;;5.03;;
4794;SDS011;2411;47.060;15.064;2023-06-22T04:45:20;13.60;;;6.37;;
4794;SDS011;2411;47.060;15.064;2023-06-22T04:47:48;16.13;;;6.43;;
4794;SDS011;2411;47.060;15.064;2023-06-22T04:50:16;15.90;;;5.50;;
4794;SDS011;2411;47.060;15.064;2023-06-22T04:52:44;11.47;;;5.27;;
4794;SDS011;2411;47.060;15.064;2023-06-22T04:55:13;12.10;;;5.57;;
4794;SDS011;2411;47.060;15.064;2023-06-22T04:57:48;12.70;;;6.00;;
4794;SDS011;2411;47.060;15.064;2023-06-22T05:00:18;16.73;;;6.30;;
4794;SDS011;2411;47.060;15.064;2023-06-22T05:02:46;24.33;;;6.70;;
4794;SDS011;2411;47.060;15.064;2023-06-22T05:05:14;17.47;;;6.07;;
4794;SDS011;2411;47.060;15.064;2023-06-22T05:07:42;22.53;;;5.93;;
4794;SDS011;2411;47.060;15.064;2023-06-22T05:10:11;13.53;;;5.43;;
4794;SDS011;2411;47.060;15.064;2023-06-22T05:12:41;17.97;;;5.70;;
4794;SDS011;2411;47.060;15.064;2023-06-22T05:15:09;8.73;;;5.00;;
4794;SDS011;2411;47.060;15.064;2023-06-22T05:17:37;12.97;;;6.07;;
4794;SDS011;2411;47.060;15.064;2023-06-22T05:20:10;14.97;;;5.93;;
4794;SDS011;2411;47.060;15.064;2023-06-22T05:22:39;11.90;;;5.00;;
4794;SDS011;2411;47.060;15.064;2023-06-22T05:25:08;23.40;;;6.43;;
4794;SDS011;2411;47.060;15.064;2023-06-22T05:27:37;10.30;;;5.00;;
4794;SDS011;2411;47.060;15.064;2023-06-22T05:30:06;10.40;;;5.30;;
4794;SDS011;2411;47.060;15.064;2023-06-22T05:32:35;18.80;;;5.90;;
4794;SDS011;2411;47.060;15.064;2023-06-22T05:35:03;16.10;;;6.07;;
4794;SDS011;2411;47.060;15.064;2023-06-22T05:37:31;15.73;;;6.10;;
4794;SDS011;2411;47.060;15.064;2023-06-22T05:39:58;15.30;;;5.20;;
4794;SDS011;2411;47.060;15.064;2023-06-22T05:42:26;22.33;;;7.00;;
4794;SDS011;2411;47.060;15.064;2023-06-22T05:44:53;17.20;;;5.40;;
4794;SDS011;2411;47.060;15.064;2023-06-22T05:47:20;12.60;;;6.33;;
4794;SDS011;2411;47.060;15.064;2023-06-22T05:49:49;19.73;;;6.33;;
4794;SDS011;2411;47.060;15.064;2023-06-22T05:52:17;15.40;;;6.20;;
4794;SDS011;2411;47.060;15.064;2023-06-22T05:54:44;17.40;;;5.47;;
4794;SDS011;2411;47.060;15.064;2023-06-22T05:57:11;16.83;;;6.20;;
4794;SDS011;2411;47.060;15.064;2023-06-22T05:59:38;14.77;;;5.50;;
4794;SDS011;2411;47.060;15.064;2023-06-22T06:02:06;18.47;;;5.30;;
4794;SDS011;2411;47.060;15.064;2023-06-22T06:04:33;19.63;;;6.07;;
4794;SDS011;2411;47.060;15.064;2023-06-22T06:07:01;15.43;;;5.27;;
4794;SDS011;2411;47.060;15.064;2023-06-22T06:09:28;19.97;;;6.10;;
4794;SDS011;2411;47.060;15.064;2023-06-22T06:11:56;20.93;;;6.77;;
4794;SDS011;2411;47.060;15.064;2023-06-22T06:14:23;17.57;;;5.77;;
4794;SDS011;2411;47.060;15.064;2023-06-22T06:16:51;16.43;;;6.47;;
4794;SDS011;2411;47.060;15.064;2023-06-22T06:19:18;17.10;;;6.40;;
4794;SDS011;2411;47.060;15.064;2023-06-22T06:21:45;17.20;;;6.20;;
4794;SDS011;2411;47.060;15.064;2023-06-22T06:24:12;18.87;;;6.07;;
4794;SDS011;2411;47.060;15.064;2023-06-22T06:26:40;17.17;;;6.50;;
4794;SDS011;2411;47.060;15.064;2023-06-22T06:29:09;21.47;;;6.50;;
4794;SDS011;2411;47.060;15.064;2023-06-22T06:31:36;29.03;;;7.60;;
4794;SDS011;2411;47.060;15.064;2023-06-22T06:34:04;15.53;;;6.30;;
4794;SDS011;2411;47.060;15.064;2023-06-22T06:36:31;20.37;;;7.53;;
4794;SDS011;2411;47.060;15.064;2023-06-22T06:38:58;17.90;;;7.60;;
4794;SDS011;2411;47.060;15.064;2023-06-22T06:41:26;17.07;;;6.93;;
4794;SDS011;2411;47.060;15.064;2023-06-22T06:43:53;16.63;;;7.33;;
4794;SDS011;2411;47.060;15.064;2023-06-22T06:46:20;16.27;;;6.67;;
4794;SDS011;2411;47.060;15.064;2023-06-22T06:48:48;20.43;;;7.30;;
4794;SDS011;2411;47.060;15.064;2023-06-22T06:51:15;24.10;;;7.30;;
4794;SDS011;2411;47.060;15.064;2023-06-22T06:53:42;18.23;;;7.10;;
4794;SDS011;2411;47.060;15.064;2023-06-22T06:56:10;18.90;;;7.23;;
4794;SDS011;2411;47.060;15.064;2023-06-22T06:58:40;14.83;;;6.37;;
4794;SDS011;2411;47.060;15.064;2023-06-22T07:01:09;19.87;;;6.47;;
4794;SDS011;2411;47.060;15.064;2023-06-22T07:03:36;14.33;;;6.60;;
4794;SDS011;2411;47.060;15.064;2023-06-22T07:06:03;15.80;;;6.87;;
4794;SDS011;2411;47.060;15.064;2023-06-22T07:08:31;18.17;;;7.50;;
4794;SDS011;2411;47.060;15.064;2023-06-22T07:10:58;23.87;;;6.53;;
4794;SDS011;2411;47.060;15.064;2023-06-22T07:13:27;21.90;;;6.67;;
4794;SDS011;2411;47.060;15.064;2023-06-22T07:15:55;15.70;;;7.43;;
4794;SDS011;2411;47.060;15.064;2023-06-22T07:18:23;14.23;;;7.00;;
4794;SDS011;2411;47.060;15.064;2023-06-22T07:20:50;14.20;;;6.37;;
4794;SDS011;2411;47.060;15.064;2023-06-22T07:23:18;17.27;;;7.30;;
4794;SDS011;2411;47.060;15.064;2023-06-22T07:25:45;19.53;;;6.70;;
4794;SDS011;2411;47.060;15.064;2023-06-22T07:28:12;16.23;;;6.87;;
4794;SDS011;2411;47.060;15.064;2023-06-22T07:30:40;12.33;;;7.60;;
4794;SDS011;2411;47.060;15.064;2023-06-22T07:33:07;18.97;;;7.17;;
4794;SDS011;2411;47.060;15.064;2023-06-22T07:35:35;12.20;;;6.10;;
4794;SDS011;2411;47.060;15.064;2023-06-22T07:38:02;11.60;;;5.90;;
4794;SDS011;2411;47.060;15.064;2023-06-22T07:40:32;14.33;;;6.83;;
4794;SDS011;2411;47.060;15.064;2023-06-22T07:43:00;12.90;;;6.70;;
4794;SDS011;2411;47.060;15.064;2023-06-22T07:45:28;24.33;;;6.17;;
4794;SDS011;2411;47.060;15.064;2023-06-22T07:47:55;13.03;;;6.90;;
4794;SDS011;2411;47.060;15.064;2023-06-22T07:50:23;17.37;;;6.43;;
4794;SDS011;2411;47.060;15.064;2023-06-22T07:52:50;11.47;;;6.97;;
4794;SDS011;2411;47.060;15.064;2023-06-22T07:55:19;12.30;;;7.07;;
4794;SDS011;2411;47.060;15.064;2023-06-22T07:57:47;16.27;;;6.93;;
4794;SDS011;2411;47.060;15.064;2023-06-22T08:00:15;13.30;;;7.03;;
4794;SDS011;2411;47.060;15.064;2023-06-22T08:02:45;12.30;;;7.13;;
4794;SDS011;2411;47.060;15.064;2023-06-22T08:05:14;16.37;;;7.03;;
4794;SDS011;2411;47.060;15.064;2023-06-22T08:07:44;10.13;;;6.20;;
4794;SDS011;2411;47.060;15.064;2023-06-22T08:10:14;13.17;;;6.53;;
4794;SDS011;2411;47.060;15.064;2023-06-22T08:12:42;12.70;;;7.60;;
4794;SDS011;2411;47.060;15.064;2023-06-22T08:15:09;14.47;;;7.60;;
4794;SDS011;2411;47.060;15.064;2023-06-22T08:17:37;12.37;;;6.60;;
4794;SDS011;2411;47.060;15.064;2023-06-22T08:20:06;14.13;;;7.80;;
4794;SDS011;2411;47.060;15.064;2023-06-22T08:22:41;14.87;;;8.07;;
4794;SDS011;2411;47.060;15.064;2023-06-22T08:25:09;15.50;;;7.47;;
4794;SDS011;2411;47.060;15.064;2023-06-22T08:27:37;14.20;;;7.13;;
4794;SDS011;2411;47.060;15.064;2023-06-22T08:30:05;15.00;;;7.53;;
4794;SDS011;2411;47.060;15.064;2023-06-22T08:32:33;16.90;;;7.50;;
4794;SDS011;2411;47.060;15.064;2023-06-22T08:35:00;14.90;;;6.90;;
4794;SDS011;2411;47.060;15.064;2023-06-22T08:37:28;17.33;;;8.00;;
4794;SDS011;2411;47.060;15.064;2023-06-22T08:40:03;15.07;;;6.97;;
4794;SDS011;2411;47.060;15.064;2023-06-22T08:42:35;17.43;;;7.00;;
4794;SDS011;2411;47.060;15.064;2023-06-22T08:45:03;8.90;;;5.57;;
4794;SDS011;2411;47.060;15.064;2023-06-22T08:47:31;10.83;;;6.83;;
4794;SDS011;2411;47.060;15.064;2023-06-22T08:49:59;13.90;;;7.60;;
4794;SDS011;2411;47.060;15.064;2023-06-22T08:52:29;13.50;;;7.33;;
4794;SDS011;2411;47.060;15.064;2023-06-22T08:54:56;11.00;;;6.00;;
4794;SDS011;2411;47.060;15.064;2023-06-22T08:57:25;13.57;;;7.13;;
4794;SDS011;2411;47.060;15.064;2023-06-22T08:59:53;12.00;;;6.57;;
4794;SDS011;2411;47.060;15.064;2023-06-22T09:02:25;12.50;;;7.60;;
4794;SDS011;2411;47.060;15.064;2023-06-22T09:04:57;17.77;;;7.00;;
4794;SDS011;2411;47.060;15.064;2023-06-22T09:07:25;12.37;;;7.60;;
4794;SDS011;2411;47.060;15.064;2023-06-22T09:09:52;15.07;;;7.57;;
4794;SDS011;2411;47.060;15.064;2023-06-22T09:12:20;15.10;;;7.77;;
4794;SDS011;2411;47.060;15.064;2023-06-22T09:14:52;11.67;;;7.50;;
4794;SDS011;2411;47.060;15.064;2023-06-22T09:17:20;16.30;;;7.37;;
4794;SDS011;2411;47.060;15.064;2023-06-22T09:19:49;16.83;;;7.80;;
4794;SDS011;2411;47.060;15.064;2023-06-22T09:22:16;14.40;;;8.27;;
4794;SDS011;2411;47.060;15.064;2023-06-22T09:24:43;22.97;;;7.97;;
4794;SDS011;2411;47.060;15.064;2023-06-22T09:27:11;18.93;;;7.87;;
4794;SDS011;2411;47.060;15.064;2023-06-22T09:29:38;16.13;;;7.47;;
4794;SDS011;2411;47.060;15.064;2023-06-22T09:32:06;17.90;;;8.10;;
4794;SDS011;2411;47.060;15.064;2023-06-22T09:34:34;24.07;;;7.90;;
4794;SDS011;2411;47.060;15.064;2023-06-22T09:37:01;19.07;;;8.50;;
4794;SDS011;2411;47.060;15.064;2023-06-22T09:39:28;18.50;;;8.03;;
4794;SDS011;2411;47.060;15.064;2023-06-22T09:41:57;13.53;;;8.20;;
4794;SDS011;2411;47.060;15.064;2023-06-22T09:44:26;19.57;;;8.67;;
4794;SDS011;2411;47.060;15.064;2023-06-22T09:46:54;12.33;;;7.93;;
4794;SDS011;2411;47.060;15.064;2023-06-22T09:49:21;13.17;;;8.10;;
4794;SDS011;2411;47.060;15.064;2023-06-22T09:52:08;11.80;;;8.10;;
4794;SDS011;2411;47.060;15.064;2023-06-22T09:54:37;14.13;;;8.07;;
4794;SDS011;2411;47.060;15.064;2023-06-22T09:57:05;19.23;;;8.83;;
4794;SDS011;2411;47.060;15.064;2023-06-22T09:59:32;11.70;;;8.40;;
4794;SDS011;2411;47.060;15.064;2023-06-22T10:02:00;16.77;;;8.13;;
4794;SDS011;2411;47.060;15.064;2023-06-22T10:04:27;16.83;;;8.07;;
4794;SDS011;2411;47.060;15.064;2023-06-22T10:06:56;13.33;;;7.87;;
4794;SDS011;2411;47.060;15.064;2023-06-22T10:09:23;20.73;;;9.20;;
4794;SDS011;2411;47.060;15.064;2023-06-22T10:11:50;14.20;;;8.20;;
4794;SDS011;2411;47.060;15.064;2023-06-22T10:14:18;16.80;;;9.13;;
4794;SDS011;2411;47.060;15.064;2023-06-22T10:16:45;14.33;;;8.30;;
4794;SDS011;2411;47.060;15.064;2023-06-22T10:19:12;14.43;;;8.53;;
4794;SDS011;2411;47.060;15.064;2023-06-22T10:21:40;15.97;;;8.77;;
4794;SDS011;2411;47.060;15.064;2023-06-22T10:24:07;19.30;;;9.60;;
4794;SDS011;2411;47.060;15.064;2023-06-22T10:26:35;12.53;;;9.10;;
4794;SDS011;2411;47.060;15.064;2023-06-22T10:29:03;14.00;;;8.60;;
4794;SDS011;2411;47.060;15.064;2023-06-22T10:31:41;13.90;;;9.03;;
4794;SDS011;2411;47.060;15.064;2023-06-22T10:34:09;13.23;;;7.80;;
4794;SDS011;2411;47.060;15.064;2023-06-22T10:36:36;14.03;;;8.93;;
4794;SDS011;2411;47.060;15.064;2023-06-22T10:39:05;14.70;;;8.70;;
4794;SDS011;2411;47.060;15.064;2023-06-22T10:41:32;18.47;;;9.43;;
4794;SDS011;2411;47.060;15.064;2023-06-22T10:43:59;10.53;;;8.23;;
4794;SDS011;2411;47.060;15.064;2023-06-22T10:46:27;14.20;;;9.60;;
4794;SDS011;2411;47.060;15.064;2023-06-22T10:48:54;14.60;;;9.57;;
4794;SDS011;2411;47.060;15.064;2023-06-22T10:51:24;14.30;;;9.00;;
4794;SDS011;2411;47.060;15.064;2023-06-22T10:53:52;11.40;;;8.07;;
4794;SDS011;2411;47.060;15.064;2023-06-22T10:56:19;13.20;;;7.83;;
4794;SDS011;2411;47.060;15.064;2023-06-22T10:58:46;13.37;;;9.03;;
4794;SDS011;2411;47.060;15.064;2023-06-22T11:01:14;12.77;;;8.13;;
4794;SDS011;2411;47.060;15.064;2023-06-22T11:04:00;17.50;;;9.57;;
4794;SDS011;2411;47.060;15.064;2023-06-22T11:06:27;11.50;;;8.70;;
4794;SDS011;2411;47.060;15.064;2023-06-22T11:08:55;14.63;;;8.00;;
4794;SDS011;2411;47.060;15.064;2023-06-22T11:11:37;14.30;;;8.30;;
4794;SDS011;2411;47.060;15.064;2023-06-22T11:14:05;19.20;;;8.80;;
4794;SDS011;2411;47.060;15.064;2023-06-22T11:16:32;14.50;;;8.43;;
4794;SDS011;2411;47.060;15.064;2023-06-22T11:19:01;11.67;;;7.90;;
4794;SDS011;2411;47.060;15.064;2023-06-22T11:21:29;12.93;;;8.40;;
4794;SDS011;2411;47.060;15.064;2023-06-22T11:23:58;18.60;;;8.70;;
4794;SDS011;2411;47.060;15.064;2023-06-22T11:26:26;12.47;;;8.23;;
4794;SDS011;2411;47.060;15.064;2023-06-22T11:28:56;14.03;;;8.77;;
4794;SDS011;2411;47.060;15.064;2023-06-22T11:31:24;18.47;;;8.53;;
4794;SDS011;2411;47.060;15.064;2023-06-22T11:33:52;13.73;;;8.30;;
4794;SDS011;2411;47.060;15.064;2023-06-22T11:36:20;17.47;;;9.27;;
4794;SDS011;2411;47.060;15.064;2023-06-22T11:38:47;15.00;;;8.63;;
4794;SDS011;2411;47.060;15.064;2023-06-22T11:41:14;33.40;;;8.93;;
4794;SDS011;2411;47.060;15.064;2023-06-22T11:43:42;12.33;;;8.43;;
4794;SDS011;2411;47.060;15.064;2023-06-22T11:46:09;16.83;;;8.20;;
4794;SDS011;2411;47.060;15.064;2023-06-22T11:48:37;12.43;;;8.67;;
4794;SDS011;2411;47.060;15.064;2023-06-22T11:51:04;16.77;;;8.73;;
4794;SDS011;2411;47.060;15.064;2023-06-22T11:53:33;16.93;;;8.27;;
4794;SDS011;2411;47.060;15.064;2023-06-22T11:56:01;15.80;;;8.33;;
4794;SDS011;2411;47.060;15.064;2023-06-22T11:58:28;11.57;;;8.07;;
4794;SDS011;2411;47.060;15.064;2023-06-22T12:00:56;16.83;;;8.47;;
4794;SDS011;2411;47.060;15.064;2023-06-22T12:03:23;17.40;;;7.60;;
4794;SDS011;2411;47.060;15.064;2023-06-22T12:05:51;16.90;;;9.60;;
4794;SDS011;2411;47.060;15.064;2023-06-22T12:08:21;11.50;;;8.60;;
4794;SDS011;2411;47.060;15.064;2023-06-22T12:10:49;19.37;;;8.67;;
4794;SDS011;2411;47.060;15.064;2023-06-22T12:13:17;14.27;;;8.40;;
4794;SDS011;2411;47.060;15.064;2023-06-22T12:15:44;14.17;;;7.83;;
4794;SDS011;2411;47.060;15.064;2023-06-22T12:18:12;18.77;;;8.20;;
4794;SDS011;2411;47.060;15.064;2023-06-22T12:20:41;13.80;;;9.17;;
4794;SDS011;2411;47.060;15.064;2023-06-22T12:23:09;11.90;;;8.30;;
4794;SDS011;2411;47.060;15.064;2023-06-22T12:25:36;9.90;;;7.97;;
4794;SDS011;2411;47.060;15.064;2023-06-22T12:28:04;16.10;;;8.50;;
4794;SDS011;2411;47.060;15.064;2023-06-22T12:30:32;16.30;;;8.87;;
4794;SDS011;2411;47.060;15.064;2023-06-22T12:33:00;11.50;;;8.50;;
4794;SDS011;2411;47.060;15.064;2023-06-22T12:35:27;15.27;;;8.27;;
4794;SDS011;2411;47.060;15.064;2023-06-22T12:37:54;15.03;;;8.50;;
4794;SDS011;2411;47.060;15.064;2023-06-22T12:40:22;10.67;;;7.50;;
4794;SDS011;2411;47.060;15.064;2023-06-22T12:42:49;11.60;;;8.30;;
4794;SDS011;2411;47.060;15.064;2023-06-22T12:45:16;18.07;;;9.23;;
4794;SDS011;2411;47.060;15.064;2023-06-22T12:47:45;14.13;;;7.60;;
4794;SDS011;2411;47.060;15.064;2023-06-22T12:50:12;13.63;;;8.50;;
4794;SDS011;2411;47.060;15.064;2023-06-22T12:52:40;13.70;;;7.93;;
4794;SDS011;2411;47.060;15.064;2023-06-22T12:55:08;16.10;;;8.33;;
4794;SDS011;2411;47.060;15.064;2023-06-22T12:57:35;14.70;;;8.90;;
4794;SDS011;2411;47.060;15.064;2023-06-22T13:00:02;12.70;;;8.07;;
4794;SDS011;2411;47.060;15.064;2023-06-22T13:02:32;13.70;;;8.30;;
4794;SDS011;2411;47.060;15.064;2023-06-22T13:04:59;15.03;;;8.33;;
4794;SDS011;2411;47.060;15.064;2023-06-22T13:07:26;21.07;;;8.37;;
4794;SDS011;2411;47.060;15.064;2023-06-22T13:09:54;20.77;;;8.70;;
4794;SDS011;2411;47.060;15.064;2023-06-22T13:12:21;14.60;;;8.07;;
4794;SDS011;2411;47.060;15.064;2023-06-22T13:14:49;22.07;;;8.40;;
4794;SDS011;2411;47.060;15.064;2023-06-22T13:17:16;17.80;;;8.70;;
4794;SDS011;2411;47.060;15.064;2023-06-22T13:19:44;25.53;;;9.23;;
4794;SDS011;2411;47.060;15.064;2023-06-22T13:22:28;16.97;;;9.50;;
4794;SDS011;2411;47.060;15.064;2023-06-22T13:25:09;20.23;;;10.10;;
4794;SDS011;2411;47.060;15.064;2023-06-22T13:27:52;17.03;;;9.40;;
4794;SDS011;2411;47.060;15.064;2023-06-22T13:30:19;16.10;;;8.83;;
4794;SDS011;2411;47.060;15.064;2023-06-22T13:32:47;17.23;;;9.40;;
4794;SDS011;2411;47.060;15.064;2023-06-22T13:35:14;14.60;;;8.97;;
4794;SDS011;2411;47.060;15.064;2023-06-22T13:37:42;19.63;;;8.80;;
4794;SDS011;2411;47.060;15.064;2023-06-22T13:40:09;17.90;;;8.93;;
4794;SDS011;2411;47.060;15.064;2023-06-22T13:42:36;16.07;;;8.40;;
4794;SDS011;2411;47.060;15.064;2023-06-22T13:45:04;19.23;;;8.47;;
4794;SDS011;2411;47.060;15.064;2023-06-22T13:47:33;14.23;;;7.47;;
4794;SDS011;2411;47.060;15.064;2023-06-22T13:50:00;20.63;;;8.87;;
4794;SDS011;2411;47.060;15.064;2023-06-22T13:52:28;17.03;;;8.87;;
4794;SDS011;2411;47.060;15.064;2023-06-22T13:54:55;16.30;;;9.20;;
4794;SDS011;2411;47.060;15.064;2023-06-22T13:57:22;17.50;;;9.00;;
4794;SDS011;2411;47.060;15.064;2023-06-22T13:59:50;12.20;;;8.90;;
4794;SDS011;2411;47.060;15.064;2023-06-22T14:02:17;15.60;;;8.90;;
4794;SDS011;2411;47.060;15.064;2023-06-22T14:04:46;17.77;;;9.37;;
4794;SDS011;2411;47.060;15.064;2023-06-22T14:07:16;15.90;;;8.90;;
4794;SDS011;2411;47.060;15.064;2023-06-22T14:09:46;19.20;;;9.23;;
4794;SDS011;2411;47.060;15.064;2023-06-22T14:12:13;18.70;;;8.93;;
4794;SDS011;2411;47.060;15.064;2023-06-22T14:14:41;14.67;;;7.60;;
4794;SDS011;2411;47.060;15.064;2023-06-22T14:17:08;16.27;;;8.63;;
4794;SDS011;2411;47.060;15.064;2023-06-22T14:19:35;17.60;;;8.30;;
4794;SDS011;2411;47.060;15.064;2023-06-22T14:22:03;16.07;;;8.47;;
4794;SDS011;2411;47.060;15.064;2023-06-22T14:24:31;18.60;;;8.30;;
4794;SDS011;2411;47.060;15.064;2023-06-22T14:26:58;12.30;;;7.30;;
4794;SDS011;2411;47.060;15.064;2023-06-22T14:29:29;14.40;;;8.40;;
4794;SDS011;2411;47.060;15.064;2023-06-22T14:31:56;13.67;;;7.87;;
4794;SDS011;2411;47.060;15.064;2023-06-22T14:34:23;16.70;;;7.73;;
4794;SDS011;2411;47.060;15.064;2023-06-22T14:36:51;14.77;;;8.40;;
4794;SDS011;2411;47.060;15.064;2023-06-22T14:39:18;16.50;;;8.43;;
4794;SDS011;2411;47.060;15.064;2023-06-22T14:41:47;14.97;;;8.67;;
4794;SDS011;2411;47.060;15.064;2023-06-22T14:44:14;19.20;;;8.87;;
4794;SDS011;2411;47.060;15.064;2023-06-22T14:46:42;17.60;;;8.77;;
4794;SDS011;2411;47.060;15.064;2023-06-22T14:49:09;24.60;;;9.53;;
4794;SDS011;2411;47.060;15.064;2023-06-22T14:51:36;17.20;;;9.43;;
4794;SDS011;2411;47.060;15.064;2023-06-22T14:54:04;18.73;;;9.20;;
4794;SDS011;2411;47.060;15.064;2023-06-22T14:56:31;17.87;;;9.90;;
4794;SDS011;2411;47.060;15.064;2023-06-22T14:59:00;17.03;;;9.87;;
4794;SDS011;2411;47.060;15.064;2023-06-22T15:01:27;16.90;;;10.30;;
4794;SDS011;2411;47.060;15.064;2023-06-22T15:03:55;18.20;;;10.17;;